sensor_id;sensor_type;location;lat;lon;timestamp;pressure;altitude;pressure_sealevel;temperature;humidity
63405;BME280;49541;57.840;12.306;2022-12-16T00:02:11;100347.16;;;-12.16;62.87
63405;BME280;49541;57.840;12.306;2022-12-16T00:07:12;100347.13;;;-12.27;62.95
63405;BME280;49541;57.840;12.306;2022-12-16T00:12:12;100347.16;;;-11.28;59.47
63405;BME280;49541;57.840;12.306;2022-12-16T00:17:12;100354.88;;;-11.24;57.31
63405;BME280;49541;57.840;12.306;2022-12-16T00:22:12;100366.00;;;-11.36;58.59
63405;BME280;49541;57.840;12.306;2022-12-16T00:27:12;100372.03;;;-11.50;57.46
63405;BME280;49541;57.840;12.306;2022-12-16T00:32:12;100368.59;;;-11.49;57.86
63405;BME280;49541;57.840;12.306;2022-12-16T00:37:13;100374.56;;;-11.38;57.25
63405;BME280;49541;57.840;12.306;2022-12-16T00:42:13;100364.31;;;-12.10;58.28
63405;BME280;49541;57.840;12.306;2022-12-16T00:47:13;100366.78;;;-12.33;59.93
63405;BME280;49541;57.840;12.306;2022-12-16T00:52:13;100376.28;;;-12.08;58.97
63405;BME280;49541;57.840;12.306;2022-12-16T00:57:13;100380.56;;;-12.10;59.06
63405;BME280;49541;57.840;12.306;2022-12-16T01:02:14;100386.38;;;-12.54;60.17
63405;BME280;49541;57.840;12.306;2022-12-16T01:07:15;100387.53;;;-13.53;62.57
63405;BME280;49541;57.840;12.306;2022-12-16T01:12:15;100391.13;;;-13.29;63.91
63405;BME280;49541;57.840;12.306;2022-12-16T01:17:15;100403.97;;;-13.22;64.53
63405;BME280;49541;57.840;12.306;2022-12-16T01:22:15;100400.81;;;-12.84;62.99
63405;BME280;49541;57.840;12.306;2022-12-16T01:27:15;100399.91;;;-12.90;62.87
63405;BME280;49541;57.840;12.306;2022-12-16T01:32:16;100397.28;;;-12.98;64.90
63405;BME280;49541;57.840;12.306;2022-12-16T01:37:16;100404.91;;;-13.06;64.71
63405;BME280;49541;57.840;12.306;2022-12-16T01:42:18;100406.53;;;-13.22;64.06
63405;BME280;49541;57.840;12.306;2022-12-16T01:47:21;100411.59;;;-13.37;64.89
63405;BME280;49541;57.840;12.306;2022-12-16T01:52:25;100409.38;;;-12.82;63.35
63405;BME280;49541;57.840;12.306;2022-12-16T01:57:29;100396.34;;;-13.11;62.38
63405;BME280;49541;57.840;12.306;2022-12-16T02:02:32;100397.13;;;-13.24;63.11
63405;BME280;49541;57.840;12.306;2022-12-16T02:07:33;100392.03;;;-13.16;62.31
63405;BME280;49541;57.840;12.306;2022-12-16T02:17:38;100411.16;;;-12.61;60.88
63405;BME280;49541;57.840;12.306;2022-12-16T02:23:02;100412.56;;;-13.13;61.70
63405;BME280;49541;57.840;12.306;2022-12-16T02:28:22;100419.88;;;-13.67;63.47
63405;BME280;49541;57.840;12.306;2022-12-16T02:39:02;100422.31;;;-13.78;65.20
63405;BME280;49541;57.840;12.306;2022-12-16T02:44:05;100423.41;;;-13.54;64.25
63405;BME280;49541;57.840;12.306;2022-12-16T02:49:07;100424.31;;;-13.46;63.61
63405;BME280;49541;57.840;12.306;2022-12-16T02:54:07;100431.91;;;-13.58;63.78
63405;BME280;49541;57.840;12.306;2022-12-16T03:04:17;100443.22;;;-13.26;64.82
63405;BME280;49541;57.840;12.306;2022-12-16T03:09:24;100434.84;;;-13.06;63.01
63405;BME280;49541;57.840;12.306;2022-12-16T03:14:27;100441.44;;;-13.41;64.66
63405;BME280;49541;57.840;12.306;2022-12-16T03:19:30;100435.28;;;-13.59;66.94
63405;BME280;49541;57.840;12.306;2022-12-16T03:24:30;100440.69;;;-13.21;67.04
63405;BME280;49541;57.840;12.306;2022-12-16T03:29:45;100443.34;;;-13.10;66.68
63405;BME280;49541;57.840;12.306;2022-12-16T03:34:54;100440.53;;;-11.72;58.47
63405;BME280;49541;57.840;12.306;2022-12-16T03:39:58;100452.47;;;-12.01;57.59
63405;BME280;49541;57.840;12.306;2022-12-16T03:45:00;100443.81;;;-12.30;59.10
63405;BME280;49541;57.840;12.306;2022-12-16T03:50:00;100452.25;;;-12.53;60.67
63405;BME280;49541;57.840;12.306;2022-12-16T03:55:00;100459.25;;;-13.54;63.63
63405;BME280;49541;57.840;12.306;2022-12-16T04:00:01;100451.78;;;-13.27;65.19
63405;BME280;49541;57.840;12.306;2022-12-16T04:05:01;100445.91;;;-13.10;65.56
63405;BME280;49541;57.840;12.306;2022-12-16T04:10:05;100450.28;;;-12.97;64.76
63405;BME280;49541;57.840;12.306;2022-12-16T04:15:06;100452.09;;;-12.84;64.07
63405;BME280;49541;57.840;12.306;2022-12-16T04:20:27;100449.59;;;-12.67;63.88
63405;BME280;49541;57.840;12.306;2022-12-16T04:25:47;100451.41;;;-12.58;63.01
63405;BME280;49541;57.840;12.306;2022-12-16T04:30:47;100471.09;;;-12.48;62.76
63405;BME280;49541;57.840;12.306;2022-12-16T04:35:47;100471.13;;;-12.45;61.27
63405;BME280;49541;57.840;12.306;2022-12-16T04:41:06;100478.84;;;-12.45;61.66
63405;BME280;49541;57.840;12.306;2022-12-16T04:46:25;100476.22;;;-12.48;61.24
63405;BME280;49541;57.840;12.306;2022-12-16T04:51:44;100465.25;;;-12.13;60.76
63405;BME280;49541;57.840;12.306;2022-12-16T04:57:03;100461.13;;;-11.34;56.95
63405;BME280;49541;57.840;12.306;2022-12-16T05:02:22;100474.00;;;-11.39;56.30
63405;BME280;49541;57.840;12.306;2022-12-16T05:07:40;100470.16;;;-12.61;59.98
63405;BME280;49541;57.840;12.306;2022-12-16T05:12:59;100470.78;;;-13.00;62.83
63405;BME280;49541;57.840;12.306;2022-12-16T05:18:18;100483.94;;;-12.51;61.83
63405;BME280;49541;57.840;12.306;2022-12-16T05:23:37;100496.59;;;-12.74;61.45
63405;BME280;49541;57.840;12.306;2022-12-16T05:28:56;100496.47;;;-12.91;63.29
63405;BME280;49541;57.840;12.306;2022-12-16T05:34:15;100500.38;;;-12.12;60.66
63405;BME280;49541;57.840;12.306;2022-12-16T05:39:34;100498.72;;;-11.96;59.52
63405;BME280;49541;57.840;12.306;2022-12-16T05:44:53;100502.00;;;-12.29;60.49
63405;BME280;49541;57.840;12.306;2022-12-16T05:50:12;100511.94;;;-12.83;62.51
63405;BME280;49541;57.840;12.306;2022-12-16T05:55:30;100525.50;;;-12.98;63.35
63405;BME280;49541;57.840;12.306;2022-12-16T06:00:49;100518.28;;;-12.26;61.57
63405;BME280;49541;57.840;12.306;2022-12-16T06:06:08;100521.97;;;-11.48;56.71
63405;BME280;49541;57.840;12.306;2022-12-16T06:11:27;100527.84;;;-11.85;56.88
63405;BME280;49541;57.840;12.306;2022-12-16T06:16:46;100525.75;;;-12.63;59.62
63405;BME280;49541;57.840;12.306;2022-12-16T06:22:05;100526.25;;;-13.11;61.49
63405;BME280;49541;57.840;12.306;2022-12-16T06:27:24;100525.25;;;-13.26;62.49
63405;BME280;49541;57.840;12.306;2022-12-16T06:32:43;100545.94;;;-13.04;63.03
63405;BME280;49541;57.840;12.306;2022-12-16T06:38:01;100542.72;;;-12.82;62.83
63405;BME280;49541;57.840;12.306;2022-12-16T06:43:20;100541.19;;;-12.58;62.63
63405;BME280;49541;57.840;12.306;2022-12-16T06:48:39;100553.31;;;-12.31;63.70
63405;BME280;49541;57.840;12.306;2022-12-16T06:53:58;100556.00;;;-12.17;65.24
63405;BME280;49541;57.840;12.306;2022-12-16T06:59:17;100562.97;;;-11.78;66.51
63405;BME280;49541;57.840;12.306;2022-12-16T07:04:36;100571.72;;;-11.20;66.85
63405;BME280;49541;57.840;12.306;2022-12-16T07:09:55;100581.00;;;-11.64;67.35
63405;BME280;49541;57.840;12.306;2022-12-16T07:15:14;100585.31;;;-11.60;68.40
63405;BME280;49541;57.840;12.306;2022-12-16T07:20:33;100603.38;;;-11.41;67.70
63405;BME280;49541;57.840;12.306;2022-12-16T07:25:52;100603.44;;;-11.10;66.26
63405;BME280;49541;57.840;12.306;2022-12-16T07:31:10;100603.44;;;-11.24;67.12
63405;BME280;49541;57.840;12.306;2022-12-16T07:36:29;100610.28;;;-11.23;67.89
63405;BME280;49541;57.840;12.306;2022-12-16T07:41:48;100617.19;;;-11.11;68.67
63405;BME280;49541;57.840;12.306;2022-12-16T07:47:07;100626.63;;;-10.90;67.32
63405;BME280;49541;57.840;12.306;2022-12-16T07:52:26;100630.06;;;-11.05;67.85
63405;BME280;49541;57.840;12.306;2022-12-16T07:57:49;100640.34;;;-11.02;68.88
63405;BME280;49541;57.840;12.306;2022-12-16T08:03:08;100641.25;;;-10.42;67.67
63405;BME280;49541;57.840;12.306;2022-12-16T08:08:26;100639.41;;;-11.29;69.10
63405;BME280;49541;57.840;12.306;2022-12-16T08:13:45;100649.75;;;-11.04;69.76
63405;BME280;49541;57.840;12.306;2022-12-16T08:19:04;100654.97;;;-10.70;69.34
63405;BME280;49541;57.840;12.306;2022-12-16T08:24:23;100663.53;;;-10.87;69.13
63405;BME280;49541;57.840;12.306;2022-12-16T08:29:42;100676.41;;;-10.18;68.38
63405;BME280;49541;57.840;12.306;2022-12-16T08:35:01;100677.22;;;-9.65;66.31
63405;BME280;49541;57.840;12.306;2022-12-16T08:40:20;100677.06;;;-9.25;63.85
63405;BME280;49541;57.840;12.306;2022-12-16T08:45:44;100683.78;;;-8.93;64.68
63405;BME280;49541;57.840;12.306;2022-12-16T08:51:04;100692.16;;;-8.54;66.56
63405;BME280;49541;57.840;12.306;2022-12-16T08:56:23;100696.97;;;-8.08;70.14
63405;BME280;49541;57.840;12.306;2022-12-16T09:01:42;100692.34;;;-7.75;72.88
63405;BME280;49541;57.840;12.306;2022-12-16T09:07:01;100708.13;;;-7.19;73.87
63405;BME280;49541;57.840;12.306;2022-12-16T09:12:20;100714.84;;;-6.41;72.51
63405;BME280;49541;57.840;12.306;2022-12-16T09:17:39;100729.72;;;-6.54;73.18
63405;BME280;49541;57.840;12.306;2022-12-16T09:23:01;100731.75;;;-6.77;74.67
63405;BME280;49541;57.840;12.306;2022-12-16T09:28:20;100739.34;;;-6.62;75.08
63405;BME280;49541;57.840;12.306;2022-12-16T09:33:39;100740.72;;;-6.36;74.99
63405;BME280;49541;57.840;12.306;2022-12-16T09:38:58;100749.66;;;-6.59;77.08
63405;BME280;49541;57.840;12.306;2022-12-16T09:44:19;100746.41;;;-6.13;76.91
63405;BME280;49541;57.840;12.306;2022-12-16T09:54:59;100764.22;;;-6.50;80.26
63405;BME280;49541;57.840;12.306;2022-12-16T10:00:21;100765.53;;;-6.22;80.43
63405;BME280;49541;57.840;12.306;2022-12-16T10:11:39;100764.13;;;-5.88;80.33
63405;BME280;49541;57.840;12.306;2022-12-16T10:17:24;100757.75;;;-5.69;80.38
63405;BME280;49541;57.840;12.306;2022-12-16T10:28:45;100760.44;;;-5.25;78.48
63405;BME280;49541;57.840;12.306;2022-12-16T10:34:08;100749.63;;;-5.49;79.58
63405;BME280;49541;57.840;12.306;2022-12-16T10:39:30;100760.41;;;-5.22;80.12
63405;BME280;49541;57.840;12.306;2022-12-16T10:44:51;100751.41;;;-5.06;79.31
63405;BME280;49541;57.840;12.306;2022-12-16T10:50:12;100756.94;;;-4.79;78.87
63405;BME280;49541;57.840;12.306;2022-12-16T10:55:48;100751.16;;;-4.94;79.44
63405;BME280;49541;57.840;12.306;2022-12-16T11:01:22;100754.03;;;-4.64;79.27
63405;BME280;49541;57.840;12.306;2022-12-16T11:06:41;100747.59;;;-4.47;78.89
63405;BME280;49541;57.840;12.306;2022-12-16T11:18:01;100753.81;;;-4.16;78.08
63405;BME280;49541;57.840;12.306;2022-12-16T11:23:21;100753.84;;;-3.81;77.84
63405;BME280;49541;57.840;12.306;2022-12-16T11:28:41;100747.16;;;-3.57;77.65
63405;BME280;49541;57.840;12.306;2022-12-16T11:34:00;100753.41;;;-3.63;77.88
63405;BME280;49541;57.840;12.306;2022-12-16T11:39:20;100757.38;;;-3.82;79.01
63405;BME280;49541;57.840;12.306;2022-12-16T11:44:54;100756.06;;;-3.32;78.28
63405;BME280;49541;57.840;12.306;2022-12-16T11:50:16;100758.03;;;-3.09;79.14
63405;BME280;49541;57.840;12.306;2022-12-16T11:55:35;100756.69;;;-2.61;76.06
63405;BME280;49541;57.840;12.306;2022-12-16T12:01:01;100754.88;;;-2.29;76.02
63405;BME280;49541;57.840;12.306;2022-12-16T12:06:30;100758.22;;;-1.97;75.35
63405;BME280;49541;57.840;12.306;2022-12-16T12:11:53;100760.31;;;-1.55;73.56
63405;BME280;49541;57.840;12.306;2022-12-16T12:22:41;100764.13;;;-1.92;72.92
63405;BME280;49541;57.840;12.306;2022-12-16T12:33:59;100764.00;;;-2.16;75.00
63405;BME280;49541;57.840;12.306;2022-12-16T12:39:28;100767.56;;;-2.47;75.59
63405;BME280;49541;57.840;12.306;2022-12-16T12:50:12;100772.84;;;-2.50;75.56
63405;BME280;49541;57.840;12.306;2022-12-16T13:01:10;100771.16;;;-2.51;75.02
63405;BME280;49541;57.840;12.306;2022-12-16T13:06:29;100767.06;;;-2.59;75.16
63405;BME280;49541;57.840;12.306;2022-12-16T13:17:23;100778.47;;;-3.24;79.21
63405;BME280;49541;57.840;12.306;2022-12-16T13:22:42;100776.25;;;-3.07;78.15
63405;BME280;49541;57.840;12.306;2022-12-16T13:28:01;100780.75;;;-2.82;78.31
63405;BME280;49541;57.840;12.306;2022-12-16T13:38:44;100786.81;;;-2.51;77.26
63405;BME280;49541;57.840;12.306;2022-12-16T13:50:00;100794.31;;;-2.40;76.38
63405;BME280;49541;57.840;12.306;2022-12-16T14:01:11;100795.16;;;-2.39;75.74
63405;BME280;49541;57.840;12.306;2022-12-16T14:06:30;100802.13;;;-2.70;76.10
63405;BME280;49541;57.840;12.306;2022-12-16T14:11:55;100799.22;;;-3.23;77.12
63405;BME280;49541;57.840;12.306;2022-12-16T14:17:23;100804.13;;;-3.43;78.96
63405;BME280;49541;57.840;12.306;2022-12-16T14:22:46;100811.13;;;-3.47;78.28
63405;BME280;49541;57.840;12.306;2022-12-16T14:28:07;100821.13;;;-3.30;78.30
63405;BME280;49541;57.840;12.306;2022-12-16T14:33:34;100822.09;;;-3.68;79.38
63405;BME280;49541;57.840;12.306;2022-12-16T14:38:53;100820.72;;;-3.47;78.14
63405;BME280;49541;57.840;12.306;2022-12-16T14:44:22;100833.34;;;-3.32;77.53
63405;BME280;49541;57.840;12.306;2022-12-16T14:49:47;100841.25;;;-3.71;78.77
63405;BME280;49541;57.840;12.306;2022-12-16T14:55:10;100841.94;;;-3.64;78.89
63405;BME280;49541;57.840;12.306;2022-12-16T15:00:31;100832.28;;;-3.97;79.59
63405;BME280;49541;57.840;12.306;2022-12-16T15:05:51;100845.13;;;-3.89;79.39
63405;BME280;49541;57.840;12.306;2022-12-16T15:11:12;100851.88;;;-4.19;79.79
63405;BME280;49541;57.840;12.306;2022-12-16T15:16:32;100847.41;;;-4.14;79.65
63405;BME280;49541;57.840;12.306;2022-12-16T15:21:54;100855.13;;;-4.09;79.65
63405;BME280;49541;57.840;12.306;2022-12-16T15:32:36;100856.41;;;-3.90;78.03
63405;BME280;49541;57.840;12.306;2022-12-16T15:37:55;100864.81;;;-3.79;76.58
63405;BME280;49541;57.840;12.306;2022-12-16T15:43:27;100867.00;;;-3.60;76.03
63405;BME280;49541;57.840;12.306;2022-12-16T15:48:47;100875.50;;;-3.52;73.91
63405;BME280;49541;57.840;12.306;2022-12-16T15:54:12;100869.69;;;-4.02;75.93
63405;BME280;49541;57.840;12.306;2022-12-16T15:59:33;100874.06;;;-4.04;75.48
63405;BME280;49541;57.840;12.306;2022-12-16T16:04:52;100879.72;;;-4.26;76.76
63405;BME280;49541;57.840;12.306;2022-12-16T16:10:18;100892.31;;;-4.48;77.19
63405;BME280;49541;57.840;12.306;2022-12-16T16:15:37;100895.09;;;-4.56;77.84
63405;BME280;49541;57.840;12.306;2022-12-16T16:20:56;100886.78;;;-4.76;78.00
63405;BME280;49541;57.840;12.306;2022-12-16T16:26:16;100884.28;;;-4.79;78.14
63405;BME280;49541;57.840;12.306;2022-12-16T16:31:35;100885.31;;;-4.89;78.05
63405;BME280;49541;57.840;12.306;2022-12-16T16:36:55;100891.16;;;-4.78;76.64
63405;BME280;49541;57.840;12.306;2022-12-16T16:42:15;100903.19;;;-4.71;76.29
63405;BME280;49541;57.840;12.306;2022-12-16T16:47:34;100908.59;;;-4.83;75.54
63405;BME280;49541;57.840;12.306;2022-12-16T16:52:53;100914.56;;;-4.78;74.51
63405;BME280;49541;57.840;12.306;2022-12-16T16:58:19;100916.84;;;-4.63;73.60
63405;BME280;49541;57.840;12.306;2022-12-16T17:03:39;100927.38;;;-4.69;73.65
63405;BME280;49541;57.840;12.306;2022-12-16T17:08:58;100936.91;;;-5.19;75.12
63405;BME280;49541;57.840;12.306;2022-12-16T17:14:18;100937.94;;;-4.78;74.05
63405;BME280;49541;57.840;12.306;2022-12-16T17:19:36;100935.66;;;-4.48;73.11
63405;BME280;49541;57.840;12.306;2022-12-16T17:24:55;100936.16;;;-4.76;73.71
63405;BME280;49541;57.840;12.306;2022-12-16T17:30:18;100935.44;;;-4.84;73.89
63405;BME280;49541;57.840;12.306;2022-12-16T17:35:38;100950.56;;;-4.58;73.68
63405;BME280;49541;57.840;12.306;2022-12-16T17:40:56;100942.53;;;-4.44;74.04
63405;BME280;49541;57.840;12.306;2022-12-16T17:46:15;100940.94;;;-4.51;74.41
63405;BME280;49541;57.840;12.306;2022-12-16T17:51:34;100954.06;;;-4.61;76.33
63405;BME280;49541;57.840;12.306;2022-12-16T17:56:53;100964.19;;;-4.45;76.50
63405;BME280;49541;57.840;12.306;2022-12-16T18:02:12;100967.44;;;-3.89;76.35
63405;BME280;49541;57.840;12.306;2022-12-16T18:07:30;100966.31;;;-3.77;74.70
63405;BME280;49541;57.840;12.306;2022-12-16T18:12:49;100967.97;;;-3.75;73.97
63405;BME280;49541;57.840;12.306;2022-12-16T18:18:08;100978.25;;;-3.68;75.33
63405;BME280;49541;57.840;12.306;2022-12-16T18:23:28;100982.84;;;-3.39;75.18
63405;BME280;49541;57.840;12.306;2022-12-16T18:28:47;100980.03;;;-3.32;75.03
63405;BME280;49541;57.840;12.306;2022-12-16T18:34:06;100977.41;;;-3.30;75.73
63405;BME280;49541;57.840;12.306;2022-12-16T18:39:24;100970.53;;;-3.33;77.48
63405;BME280;49541;57.840;12.306;2022-12-16T18:44:43;100974.41;;;-3.13;77.17
63405;BME280;49541;57.840;12.306;2022-12-16T18:50:03;100979.00;;;-2.89;76.81
63405;BME280;49541;57.840;12.306;2022-12-16T18:55:22;100972.00;;;-2.86;76.52
63405;BME280;49541;57.840;12.306;2022-12-16T19:00:41;100978.47;;;-3.39;78.20
63405;BME280;49541;57.840;12.306;2022-12-16T19:05:59;100979.63;;;-2.77;76.69
63405;BME280;49541;57.840;12.306;2022-12-16T19:11:18;100970.56;;;-3.36;79.57
63405;BME280;49541;57.840;12.306;2022-12-16T19:16:37;100977.91;;;-2.45;77.43
63405;BME280;49541;57.840;12.306;2022-12-16T19:21:56;100976.56;;;-2.28;75.35
63405;BME280;49541;57.840;12.306;2022-12-16T19:27:15;100973.66;;;-2.82;76.37
63405;BME280;49541;57.840;12.306;2022-12-16T19:32:34;100984.38;;;-2.60;75.02
63405;BME280;49541;57.840;12.306;2022-12-16T19:37:53;100974.00;;;-2.29;73.39
63405;BME280;49541;57.840;12.306;2022-12-16T19:43:12;100964.59;;;-2.68;73.19
63405;BME280;49541;57.840;12.306;2022-12-16T19:48:31;100981.16;;;-3.06;75.78
63405;BME280;49541;57.840;12.306;2022-12-16T19:53:49;100984.44;;;-2.62;74.80
63405;BME280;49541;57.840;12.306;2022-12-16T19:59:08;100987.66;;;-2.86;74.54
63405;BME280;49541;57.840;12.306;2022-12-16T20:04:27;100989.28;;;-2.82;74.22
63405;BME280;49541;57.840;12.306;2022-12-16T20:09:46;100989.94;;;-2.40;74.26
63405;BME280;49541;57.840;12.306;2022-12-16T20:15:05;100989.84;;;-2.70;74.66
63405;BME280;49541;57.840;12.306;2022-12-16T20:20:24;100997.56;;;-2.32;74.57
63405;BME280;49541;57.840;12.306;2022-12-16T20:25:43;101002.72;;;-2.31;73.95
63405;BME280;49541;57.840;12.306;2022-12-16T20:31:02;100989.94;;;-3.10;76.51
63405;BME280;49541;57.840;12.306;2022-12-16T20:36:21;100999.59;;;-2.11;74.68
63405;BME280;49541;57.840;12.306;2022-12-16T20:41:40;100989.84;;;-2.37;74.71
63405;BME280;49541;57.840;12.306;2022-12-16T20:46:59;101004.91;;;-1.82;73.38
63405;BME280;49541;57.840;12.306;2022-12-16T20:52:17;101001.56;;;-2.19;73.80
63405;BME280;49541;57.840;12.306;2022-12-16T20:57:36;101011.63;;;-2.07;73.75
63405;BME280;49541;57.840;12.306;2022-12-16T21:02:55;101007.81;;;-2.26;74.30
63405;BME280;49541;57.840;12.306;2022-12-16T21:08:14;100995.94;;;-1.74;72.42
63405;BME280;49541;57.840;12.306;2022-12-16T21:13:33;100995.97;;;-2.07;73.04
63405;BME280;49541;57.840;12.306;2022-12-16T21:19:06;100997.19;;;-1.87;72.39
63405;BME280;49541;57.840;12.306;2022-12-16T21:24:25;101008.56;;;-2.21;73.10
63405;BME280;49541;57.840;12.306;2022-12-16T21:29:44;101005.56;;;-2.38;74.29
63405;BME280;49541;57.840;12.306;2022-12-16T21:35:03;101000.50;;;-2.44;74.03
63405;BME280;49541;57.840;12.306;2022-12-16T21:40:22;100998.34;;;-2.63;74.11
63405;BME280;49541;57.840;12.306;2022-12-16T21:45:41;101013.72;;;-2.86;74.50
63405;BME280;49541;57.840;12.306;2022-12-16T21:51:00;101004.88;;;-2.45;72.91
63405;BME280;49541;57.840;12.306;2022-12-16T21:56:19;101010.94;;;-2.44;73.10
63405;BME280;49541;57.840;12.306;2022-12-16T22:01:38;101013.84;;;-2.57;72.78
63405;BME280;49541;57.840;12.306;2022-12-16T22:06:57;101026.28;;;-2.32;72.04
63405;BME280;49541;57.840;12.306;2022-12-16T22:12:16;101030.50;;;-2.98;73.25
63405;BME280;49541;57.840;12.306;2022-12-16T22:17:35;101031.63;;;-3.10;74.48
63405;BME280;49541;57.840;12.306;2022-12-16T22:22:53;101043.34;;;-3.28;75.76
63405;BME280;49541;57.840;12.306;2022-12-16T22:28:12;101040.59;;;-3.20;75.65
63405;BME280;49541;57.840;12.306;2022-12-16T22:33:31;101047.59;;;-2.86;74.77
63405;BME280;49541;57.840;12.306;2022-12-16T22:38:50;101052.91;;;-3.28;76.47
63405;BME280;49541;57.840;12.306;2022-12-16T22:44:09;101061.59;;;-3.30;76.82
63405;BME280;49541;57.840;12.306;2022-12-16T22:49:28;101056.47;;;-2.94;76.52
63405;BME280;49541;57.840;12.306;2022-12-16T22:54:47;101039.22;;;-2.99;76.61
63405;BME280;49541;57.840;12.306;2022-12-16T23:00:06;101025.91;;;-3.24;77.22
63405;BME280;49541;57.840;12.306;2022-12-16T23:05:24;101015.81;;;-3.01;77.40
63405;BME280;49541;57.840;12.306;2022-12-16T23:10:43;101007.53;;;-2.82;75.61
63405;BME280;49541;57.840;12.306;2022-12-16T23:16:02;101008.22;;;-2.74;76.44
63405;BME280;49541;57.840;12.306;2022-12-16T23:21:21;101015.06;;;-2.70;76.05
63405;BME280;49541;57.840;12.306;2022-12-16T23:26:41;101015.19;;;-2.40;74.46
63405;BME280;49541;57.840;12.306;2022-12-16T23:32:00;101017.09;;;-2.81;75.34
63405;BME280;49541;57.840;12.306;2022-12-16T23:37:18;100998.22;;;-2.93;76.75
63405;BME280;49541;57.840;12.306;2022-12-16T23:42:37;101009.09;;;-3.11;77.06
63405;BME280;49541;57.840;12.306;2022-12-16T23:48:03;101007.88;;;-3.34;77.17
63405;BME280;49541;57.840;12.306;2022-12-16T23:53:22;101004.78;;;-3.51;79.03
63405;BME280;49541;57.840;12.306;2022-12-16T23:58:41;100998.56;;;-3.44;78.02
